KLM1291 EHAM-EKBI
Flight info
| Callsign | KLM1291 |
|---|---|
| Flight time | 0h 51m |
| Altitude | 29000 |
| Route | ANDIK N873 IQITA DCT REXMI DCT MIKRO DCT GELBA |
| Aircraft | B738/M-SDE2E3FGHIRWXY/LB1 |
Departure
| Time | 2026-04-28 11:24 |
|---|---|
| Airport | Amsterdam Airport Schiphol (EHAM) |
Arrival
| Time | 2026-04-28 12:15 |
|---|---|
| Airport | Billund Airport (EKBI) |
| Time | Latitude | Longitude | Altitude | Speed | Heading |
|---|---|---|---|---|---|
| 2026-04-28 11:01 | 52.30705 | 4.77342 | 13 ft | 0 kts | 1° |
| 2026-04-28 11:16 | 52.30680 | 4.77339 | 13 ft | 4 kts | 15° |
| 2026-04-28 11:16 | 52.30654 | 4.77317 | 13 ft | 5 kts | 43° |
| 2026-04-28 11:17 | 52.30642 | 4.77288 | 13 ft | 0 kts | 84° |
| 2026-04-28 11:17 | 52.30642 | 4.77314 | 13 ft | 6 kts | 90° |
| 2026-04-28 11:17 | 52.30641 | 4.77444 | 13 ft | 14 kts | 90° |
| 2026-04-28 11:18 | 52.30670 | 4.77567 | 13 ft | 11 kts | 28° |
| 2026-04-28 11:18 | 52.30764 | 4.77596 | 13 ft | 17 kts | 4° |
| 2026-04-28 11:18 | 52.30907 | 4.77612 | 13 ft | 25 kts | 3° |
| 2026-04-28 11:18 | 52.31048 | 4.77623 | 13 ft | 19 kts | 4° |
| 2026-04-28 11:19 | 52.31163 | 4.77634 | 13 ft | 17 kts | 3° |
| 2026-04-28 11:19 | 52.31306 | 4.77647 | 13 ft | 24 kts | 4° |
| 2026-04-28 11:19 | 52.31455 | 4.77628 | 13 ft | 18 kts | 333° |
| 2026-04-28 11:19 | 52.31547 | 4.77494 | 13 ft | 19 kts | 305° |
| 2026-04-28 11:20 | 52.31575 | 4.77248 | 13 ft | 24 kts | 268° |
| 2026-04-28 11:20 | 52.31565 | 4.76993 | 13 ft | 20 kts | 266° |
| 2026-04-28 11:20 | 52.31557 | 4.76798 | 13 ft | 15 kts | 266° |
| 2026-04-28 11:20 | 52.31548 | 4.76563 | 13 ft | 28 kts | 267° |
| 2026-04-28 11:21 | 52.31538 | 4.76213 | 13 ft | 31 kts | 267° |
| 2026-04-28 11:21 | 52.31526 | 4.75895 | 13 ft | 25 kts | 266° |
| 2026-04-28 11:21 | 52.31517 | 4.75643 | 13 ft | 20 kts | 266° |
| 2026-04-28 11:21 | 52.31511 | 4.75416 | 13 ft | 19 kts | 267° |
| 2026-04-28 11:22 | 52.31502 | 4.75210 | 13 ft | 20 kts | 266° |
| 2026-04-28 11:22 | 52.31495 | 4.74945 | 13 ft | 24 kts | 266° |
| 2026-04-28 11:22 | 52.31500 | 4.74722 | 13 ft | 16 kts | 306° |
| 2026-04-28 11:22 | 52.31582 | 4.74661 | 13 ft | 13 kts | 356° |
| 2026-04-28 11:23 | 52.31662 | 4.74734 | 13 ft | 13 kts | 74° |
| 2026-04-28 11:23 | 52.31670 | 4.74861 | 13 ft | 13 kts | 86° |
| 2026-04-28 11:23 | 52.31687 | 4.75266 | 13 ft | 75 kts | 87° |
| 2026-04-28 11:23 | 52.31737 | 4.76567 | 42 ft | 149 kts | 83° |
| 2026-04-28 11:24 | 52.31810 | 4.78378 | 765 ft | 163 kts | 84° |
| 2026-04-28 11:24 | 52.31863 | 4.80221 | 1828 ft | 168 kts | 85° |
| 2026-04-28 11:24 | 52.31905 | 4.82246 | 2406 ft | 190 kts | 86° |
| 2026-04-28 11:24 | 52.31939 | 4.84583 | 2857 ft | 219 kts | 87° |
| 2026-04-28 11:25 | 52.31963 | 4.87124 | 3770 ft | 227 kts | 87° |
| 2026-04-28 11:25 | 52.32201 | 4.89729 | 4640 ft | 238 kts | 74° |
| 2026-04-28 11:25 | 52.32937 | 4.92202 | 5589 ft | 246 kts | 57° |
| 2026-04-28 11:25 | 52.34023 | 4.94433 | 6543 ft | 254 kts | 52° |
| 2026-04-28 11:26 | 52.35157 | 4.96682 | 7483 ft | 260 kts | 53° |
| 2026-04-28 11:26 | 52.36289 | 4.99008 | 8434 ft | 264 kts | 53° |
| 2026-04-28 11:26 | 52.37405 | 5.01423 | 9337 ft | 270 kts | 56° |
| 2026-04-28 11:26 | 52.38514 | 5.03938 | 10225 ft | 276 kts | 56° |
| 2026-04-28 11:27 | 52.39648 | 5.06533 | 10980 ft | 287 kts | 56° |
| 2026-04-28 11:27 | 52.40844 | 5.09277 | 11468 ft | 307 kts | 56° |
| 2026-04-28 11:27 | 52.42369 | 5.11964 | 11879 ft | 330 kts | 40° |
| 2026-04-28 11:27 | 52.44390 | 5.13887 | 12556 ft | 342 kts | 26° |
| 2026-04-28 11:28 | 52.46644 | 5.15215 | 13369 ft | 349 kts | 18° |
| 2026-04-28 11:28 | 52.49004 | 5.16255 | 14224 ft | 353 kts | 16° |
| 2026-04-28 11:28 | 52.51414 | 5.17213 | 15044 ft | 358 kts | 16° |
| 2026-04-28 11:28 | 52.53833 | 5.18214 | 15802 ft | 363 kts | 16° |
| 2026-04-28 11:29 | 52.56291 | 5.19256 | 16546 ft | 368 kts | 17° |
| 2026-04-28 11:29 | 52.58778 | 5.20328 | 17306 ft | 372 kts | 17° |
| 2026-04-28 11:29 | 52.61286 | 5.21421 | 18015 ft | 376 kts | 17° |
| 2026-04-28 11:29 | 52.63824 | 5.22536 | 18702 ft | 381 kts | 17° |
| 2026-04-28 11:30 | 52.66399 | 5.23673 | 19390 ft | 385 kts | 17° |
| 2026-04-28 11:30 | 52.71564 | 5.26242 | 20688 ft | 391 kts | 27° |
| 2026-04-28 11:30 | 52.73874 | 5.28580 | 21292 ft | 392 kts | 40° |
| 2026-04-28 11:31 | 52.75850 | 5.31660 | 21976 ft | 391 kts | 49° |
| 2026-04-28 11:31 | 52.77691 | 5.34941 | 22571 ft | 394 kts | 51° |
| 2026-04-28 11:31 | 52.79473 | 5.38481 | 23144 ft | 397 kts | 54° |
| 2026-04-28 11:31 | 52.81161 | 5.42119 | 23707 ft | 400 kts | 55° |
| 2026-04-28 11:32 | 52.82846 | 5.45793 | 24288 ft | 402 kts | 54° |
| 2026-04-28 11:32 | 52.84533 | 5.49455 | 24947 ft | 402 kts | 53° |
| 2026-04-28 11:32 | 52.86237 | 5.53143 | 25440 ft | 405 kts | 53° |
| 2026-04-28 11:32 | 52.87952 | 5.56846 | 25940 ft | 408 kts | 53° |
| 2026-04-28 11:33 | 52.89677 | 5.60570 | 26424 ft | 410 kts | 53° |
| 2026-04-28 11:33 | 52.91429 | 5.64323 | 26890 ft | 414 kts | 53° |
| 2026-04-28 11:33 | 52.93209 | 5.68072 | 27389 ft | 414 kts | 53° |
| 2026-04-28 11:33 | 52.94987 | 5.71855 | 28119 ft | 409 kts | 53° |
| 2026-04-28 11:34 | 52.96699 | 5.75524 | 28731 ft | 407 kts | 53° |
| 2026-04-28 11:34 | 52.98448 | 5.79293 | 28988 ft | 409 kts | 54° |
| 2026-04-28 11:34 | 53.01899 | 5.86765 | 29031 ft | 406 kts | 54° |
| 2026-04-28 11:35 | 53.05327 | 5.94220 | 29070 ft | 407 kts | 54° |
| 2026-04-28 11:35 | 53.08744 | 6.01663 | 29070 ft | 405 kts | 54° |
| 2026-04-28 11:36 | 53.12151 | 6.09089 | 29032 ft | 403 kts | 54° |
| 2026-04-28 11:36 | 53.15545 | 6.16498 | 29037 ft | 404 kts | 53° |
| 2026-04-28 11:37 | 53.19000 | 6.23963 | 29036 ft | 404 kts | 53° |
| 2026-04-28 11:37 | 53.22396 | 6.31401 | 29029 ft | 403 kts | 54° |
| 2026-04-28 11:38 | 53.25770 | 6.38847 | 29021 ft | 404 kts | 54° |
| 2026-04-28 11:38 | 53.29139 | 6.46315 | 29037 ft | 401 kts | 54° |
| 2026-04-28 11:39 | 53.32483 | 6.53744 | 29057 ft | 400 kts | 54° |
| 2026-04-28 11:39 | 53.36084 | 6.60827 | 29081 ft | 401 kts | 45° |
| 2026-04-28 11:40 | 53.40161 | 6.67102 | 29116 ft | 400 kts | 43° |
| 2026-04-28 11:40 | 53.44297 | 6.73429 | 29164 ft | 398 kts | 43° |
| 2026-04-28 11:41 | 53.48384 | 6.79719 | 29209 ft | 398 kts | 43° |
| 2026-04-28 11:41 | 53.52446 | 6.86004 | 29266 ft | 397 kts | 43° |
| 2026-04-28 11:42 | 53.56491 | 6.92285 | 29312 ft | 396 kts | 42° |
| 2026-04-28 11:42 | 53.60691 | 6.98247 | 29349 ft | 396 kts | 39° |
| 2026-04-28 11:43 | 53.64900 | 7.04171 | 29374 ft | 395 kts | 40° |
| 2026-04-28 11:43 | 53.69117 | 7.10172 | 29396 ft | 395 kts | 40° |
| 2026-04-28 11:44 | 53.73305 | 7.16155 | 29406 ft | 395 kts | 40° |
| 2026-04-28 11:44 | 53.77487 | 7.22161 | 29407 ft | 395 kts | 40° |
| 2026-04-28 11:45 | 53.81637 | 7.28172 | 29407 ft | 395 kts | 40° |
| 2026-04-28 11:45 | 53.85887 | 7.33752 | 29407 ft | 395 kts | 32° |
| 2026-04-28 11:46 | 53.90894 | 7.38010 | 29401 ft | 396 kts | 23° |
| 2026-04-28 11:46 | 53.96124 | 7.41067 | 29396 ft | 397 kts | 15° |
| 2026-04-28 11:47 | 54.01562 | 7.42890 | 29406 ft | 400 kts | 12° |
| 2026-04-28 11:47 | 54.06996 | 7.44596 | 29407 ft | 398 kts | 12° |
| 2026-04-28 11:48 | 54.12460 | 7.46329 | 29408 ft | 399 kts | 12° |
| 2026-04-28 11:48 | 54.17903 | 7.48064 | 29394 ft | 398 kts | 12° |
| 2026-04-28 11:49 | 54.23395 | 7.49807 | 29384 ft | 398 kts | 12° |
| 2026-04-28 11:49 | 54.28757 | 7.51511 | 29395 ft | 392 kts | 11° |
| 2026-04-28 11:50 | 54.34098 | 7.53214 | 29370 ft | 387 kts | 11° |
| 2026-04-28 11:50 | 54.36725 | 7.54054 | 29088 ft | 382 kts | 11° |
| 2026-04-28 11:50 | 54.39314 | 7.54871 | 28750 ft | 374 kts | 11° |
| 2026-04-28 11:51 | 54.41892 | 7.55688 | 28269 ft | 372 kts | 11° |
| 2026-04-28 11:51 | 54.44422 | 7.56495 | 27797 ft | 369 kts | 11° |
| 2026-04-28 11:51 | 54.46939 | 7.57301 | 27331 ft | 367 kts | 11° |
| 2026-04-28 11:51 | 54.49442 | 7.58104 | 26870 ft | 365 kts | 11° |
| 2026-04-28 11:52 | 54.51926 | 7.58904 | 26389 ft | 363 kts | 12° |
| 2026-04-28 11:52 | 54.54393 | 7.59699 | 25902 ft | 362 kts | 14° |
| 2026-04-28 11:52 | 54.56864 | 7.60498 | 25432 ft | 361 kts | 14° |
| 2026-04-28 11:52 | 54.59319 | 7.61293 | 24968 ft | 359 kts | 14° |
| 2026-04-28 11:53 | 54.61770 | 7.62086 | 24482 ft | 359 kts | 15° |
| 2026-04-28 11:53 | 54.64225 | 7.62882 | 24023 ft | 359 kts | 14° |
| 2026-04-28 11:53 | 54.66672 | 7.63675 | 23569 ft | 357 kts | 14° |
| 2026-04-28 11:53 | 54.69139 | 7.64478 | 23111 ft | 356 kts | 13° |
| 2026-04-28 11:54 | 54.71527 | 7.65247 | 22677 ft | 353 kts | 12° |
| 2026-04-28 11:54 | 54.73957 | 7.66034 | 22232 ft | 351 kts | 11° |
| 2026-04-28 11:54 | 54.76345 | 7.66812 | 21792 ft | 348 kts | 11° |
| 2026-04-28 11:54 | 54.78715 | 7.67585 | 21350 ft | 346 kts | 11° |
| 2026-04-28 11:55 | 54.81066 | 7.68355 | 20907 ft | 344 kts | 12° |
| 2026-04-28 11:55 | 54.82620 | 7.68865 | 20617 ft | 343 kts | 11° |
| 2026-04-28 11:55 | 54.85732 | 7.69889 | 20040 ft | 340 kts | 8° |
| 2026-04-28 11:55 | 54.87266 | 7.70394 | 19757 ft | 339 kts | 8° |
| 2026-04-28 11:56 | 54.89581 | 7.71157 | 19322 ft | 339 kts | 8° |
| 2026-04-28 11:56 | 54.91894 | 7.71920 | 18885 ft | 339 kts | 7° |
| 2026-04-28 11:56 | 54.94208 | 7.72684 | 18413 ft | 340 kts | 7° |
| 2026-04-28 11:56 | 54.96560 | 7.73461 | 17974 ft | 339 kts | 8° |
| 2026-04-28 11:57 | 54.98821 | 7.74354 | 17547 ft | 339 kts | 14° |
| 2026-04-28 11:57 | 55.01066 | 7.75756 | 17109 ft | 339 kts | 21° |
| 2026-04-28 11:57 | 55.03167 | 7.77584 | 16694 ft | 338 kts | 26° |
| 2026-04-28 11:57 | 55.05204 | 7.79616 | 16282 ft | 338 kts | 28° |
| 2026-04-28 11:58 | 55.07229 | 7.81705 | 15863 ft | 337 kts | 28° |
| 2026-04-28 11:58 | 55.09244 | 7.83775 | 15445 ft | 337 kts | 28° |
| 2026-04-28 11:58 | 55.11258 | 7.85835 | 15027 ft | 336 kts | 28° |
| 2026-04-28 11:58 | 55.13275 | 7.87892 | 14609 ft | 335 kts | 28° |
| 2026-04-28 11:59 | 55.15293 | 7.89914 | 14193 ft | 335 kts | 27° |
| 2026-04-28 11:59 | 55.17310 | 7.91939 | 13778 ft | 335 kts | 28° |
| 2026-04-28 11:59 | 55.19320 | 7.93966 | 13369 ft | 334 kts | 28° |
| 2026-04-28 11:59 | 55.21326 | 7.95994 | 12985 ft | 333 kts | 28° |
| 2026-04-28 12:00 | 55.23325 | 7.98022 | 12595 ft | 332 kts | 30° |
| 2026-04-28 12:00 | 55.25339 | 8.00070 | 12199 ft | 331 kts | 31° |
| 2026-04-28 12:00 | 55.27333 | 8.02101 | 11816 ft | 330 kts | 32° |
| 2026-04-28 12:00 | 55.29304 | 8.04112 | 11437 ft | 328 kts | 32° |
| 2026-04-28 12:01 | 55.31261 | 8.06110 | 11125 ft | 323 kts | 32° |
| 2026-04-28 12:01 | 55.33166 | 8.08059 | 10944 ft | 308 kts | 32° |
| 2026-04-28 12:01 | 55.34838 | 8.09771 | 10801 ft | 298 kts | 32° |
| 2026-04-28 12:01 | 55.36600 | 8.11575 | 10654 ft | 290 kts | 32° |
| 2026-04-28 12:02 | 55.38316 | 8.13332 | 10519 ft | 282 kts | 31° |
| 2026-04-28 12:02 | 55.39979 | 8.15036 | 10469 ft | 271 kts | 32° |
| 2026-04-28 12:02 | 55.41532 | 8.16824 | 10304 ft | 265 kts | 39° |
| 2026-04-28 12:02 | 55.42924 | 8.18914 | 9996 ft | 264 kts | 45° |
| 2026-04-28 12:03 | 55.44280 | 8.21188 | 9623 ft | 266 kts | 46° |
| 2026-04-28 12:03 | 55.45584 | 8.23441 | 9318 ft | 261 kts | 46° |
| 2026-04-28 12:03 | 55.46861 | 8.25644 | 8895 ft | 260 kts | 46° |
| 2026-04-28 12:03 | 55.48161 | 8.27887 | 8460 ft | 259 kts | 46° |
| 2026-04-28 12:04 | 55.49454 | 8.30103 | 8041 ft | 257 kts | 45° |
| 2026-04-28 12:04 | 55.50732 | 8.32261 | 7635 ft | 255 kts | 45° |
| 2026-04-28 12:04 | 55.51997 | 8.34404 | 7200 ft | 255 kts | 45° |
| 2026-04-28 12:04 | 55.53302 | 8.36628 | 6921 ft | 256 kts | 46° |
| 2026-04-28 12:05 | 55.54584 | 8.38826 | 6597 ft | 257 kts | 45° |
| 2026-04-28 12:05 | 55.55857 | 8.41004 | 6403 ft | 253 kts | 45° |
| 2026-04-28 12:05 | 55.57117 | 8.43170 | 6112 ft | 253 kts | 45° |
| 2026-04-28 12:05 | 55.58374 | 8.45332 | 5765 ft | 253 kts | 45° |
| 2026-04-28 12:06 | 55.59647 | 8.47528 | 5443 ft | 252 kts | 45° |
| 2026-04-28 12:06 | 55.60899 | 8.49692 | 5131 ft | 251 kts | 45° |
| 2026-04-28 12:06 | 55.62145 | 8.51846 | 4820 ft | 250 kts | 45° |
| 2026-04-28 12:06 | 55.63385 | 8.53994 | 4510 ft | 249 kts | 45° |
| 2026-04-28 12:07 | 55.64613 | 8.56124 | 4203 ft | 247 kts | 45° |
| 2026-04-28 12:07 | 55.65840 | 8.58253 | 3906 ft | 246 kts | 45° |
| 2026-04-28 12:07 | 55.66962 | 8.60202 | 3785 ft | 240 kts | 45° |
| 2026-04-28 12:07 | 55.68130 | 8.62231 | 3707 ft | 229 kts | 45° |
| 2026-04-28 12:08 | 55.69238 | 8.64155 | 3630 ft | 218 kts | 45° |
| 2026-04-28 12:08 | 55.70295 | 8.65991 | 3541 ft | 208 kts | 45° |
| 2026-04-28 12:08 | 55.71313 | 8.67761 | 3348 ft | 203 kts | 45° |
| 2026-04-28 12:08 | 55.72176 | 8.69692 | 3068 ft | 202 kts | 65° |
| 2026-04-28 12:09 | 55.72522 | 8.72091 | 2918 ft | 201 kts | 78° |
| 2026-04-28 12:09 | 55.72717 | 8.74537 | 2893 ft | 201 kts | 82° |
| 2026-04-28 12:09 | 55.72825 | 8.76842 | 2890 ft | 195 kts | 84° |
| 2026-04-28 12:09 | 55.72906 | 8.79123 | 2884 ft | 183 kts | 85° |
| 2026-04-28 12:10 | 55.72979 | 8.81329 | 2929 ft | 178 kts | 85° |
| 2026-04-28 12:10 | 55.73049 | 8.83502 | 2950 ft | 175 kts | 84° |
| 2026-04-28 12:10 | 55.73116 | 8.85626 | 2958 ft | 169 kts | 84° |
| 2026-04-28 12:10 | 55.73179 | 8.87640 | 2971 ft | 160 kts | 84° |
| 2026-04-28 12:11 | 55.73240 | 8.89601 | 2842 ft | 157 kts | 85° |
| 2026-04-28 12:11 | 55.73299 | 8.91522 | 2636 ft | 154 kts | 85° |
| 2026-04-28 12:11 | 55.73357 | 8.93375 | 2430 ft | 148 kts | 85° |
| 2026-04-28 12:11 | 55.73412 | 8.95168 | 2246 ft | 141 kts | 85° |
| 2026-04-28 12:12 | 55.73465 | 8.96879 | 2053 ft | 137 kts | 85° |
| 2026-04-28 12:12 | 55.73517 | 8.98553 | 1876 ft | 135 kts | 85° |
| 2026-04-28 12:12 | 55.73568 | 9.00188 | 1724 ft | 134 kts | 85° |
| 2026-04-28 12:12 | 55.73619 | 9.01842 | 1532 ft | 136 kts | 85° |
| 2026-04-28 12:13 | 55.73671 | 9.03532 | 1347 ft | 137 kts | 85° |
| 2026-04-28 12:13 | 55.73723 | 9.05213 | 1166 ft | 137 kts | 86° |
| 2026-04-28 12:13 | 55.73775 | 9.06889 | 982 ft | 137 kts | 86° |
| 2026-04-28 12:13 | 55.73827 | 9.08584 | 800 ft | 137 kts | 85° |
| 2026-04-28 12:14 | 55.73880 | 9.10270 | 619 ft | 138 kts | 85° |
| 2026-04-28 12:14 | 55.73931 | 9.11961 | 437 ft | 137 kts | 86° |
| 2026-04-28 12:14 | 55.73993 | 9.13688 | 298 ft | 145 kts | 85° |
| 2026-04-28 12:14 | 55.74039 | 9.15408 | 255 ft | 115 kts | 84° |
| 2026-04-28 12:15 | 55.74068 | 9.16271 | 255 ft | 46 kts | 87° |
| 2026-04-28 12:15 | 55.74084 | 9.16752 | 255 ft | 26 kts | 86° |
| 2026-04-28 12:15 | 55.74151 | 9.16905 | 255 ft | 16 kts | 13° |
| 2026-04-28 12:15 | 55.74243 | 9.16835 | 255 ft | 16 kts | 270° |
| 2026-04-28 12:16 | 55.74235 | 9.16571 | 255 ft | 27 kts | 266° |
| 2026-04-28 12:16 | 55.74227 | 9.16268 | 255 ft | 22 kts | 268° |
| 2026-04-28 12:16 | 55.74220 | 9.15990 | 255 ft | 22 kts | 268° |
| 2026-04-28 12:16 | 55.74215 | 9.15741 | 255 ft | 18 kts | 267° |
| 2026-04-28 12:17 | 55.74208 | 9.15544 | 255 ft | 17 kts | 266° |
| 2026-04-28 12:17 | 55.74200 | 9.15293 | 255 ft | 23 kts | 267° |
| 2026-04-28 12:17 | 55.74201 | 9.15052 | 255 ft | 16 kts | 302° |
| 2026-04-28 12:17 | 55.74295 | 9.14990 | 255 ft | 17 kts | 355° |
| 2026-04-28 12:18 | 55.74415 | 9.14974 | 255 ft | 16 kts | 345° |
| 2026-04-28 12:18 | 55.74506 | 9.14948 | 255 ft | 11 kts | 356° |
| 2026-04-28 12:18 | 55.74541 | 9.14946 | 255 ft | 0 kts | 357° |